sensor_id;sensor_type;location;lat;lon;timestamp;P1;durP1;ratioP1;P2;durP2;ratioP2
37943;SDS011;23767;42.024;23.086;2023-01-30T00:01:12;24.27;;;14.10;;
37943;SDS011;23767;42.024;23.086;2023-01-30T00:03:38;23.30;;;14.20;;
37943;SDS011;23767;42.024;23.086;2023-01-30T00:06:04;21.10;;;14.27;;
37943;SDS011;23767;42.024;23.086;2023-01-30T00:08:30;22.97;;;14.83;;
37943;SDS011;23767;42.024;23.086;2023-01-30T00:10:56;24.33;;;14.87;;
37943;SDS011;23767;42.024;23.086;2023-01-30T00:13:27;23.67;;;15.37;;
37943;SDS011;23767;42.024;23.086;2023-01-30T00:15:54;24.57;;;15.53;;
37943;SDS011;23767;42.024;23.086;2023-01-30T00:18:20;24.63;;;15.53;;
37943;SDS011;23767;42.024;23.086;2023-01-30T00:20:46;24.27;;;14.77;;
37943;SDS011;23767;42.024;23.086;2023-01-30T00:23:12;31.27;;;16.70;;
37943;SDS011;23767;42.024;23.086;2023-01-30T00:25:38;23.17;;;15.07;;
37943;SDS011;23767;42.024;23.086;2023-01-30T00:28:04;24.03;;;15.77;;
37943;SDS011;23767;42.024;23.086;2023-01-30T00:30:30;23.90;;;14.67;;
37943;SDS011;23767;42.024;23.086;2023-01-30T00:32:56;21.53;;;13.90;;
37943;SDS011;23767;42.024;23.086;2023-01-30T00:35:23;22.17;;;13.30;;
37943;SDS011;23767;42.024;23.086;2023-01-30T00:37:52;24.53;;;15.07;;
37943;SDS011;23767;42.024;23.086;2023-01-30T00:40:19;24.53;;;15.37;;
37943;SDS011;23767;42.024;23.086;2023-01-30T00:42:45;25.90;;;15.63;;
37943;SDS011;23767;42.024;23.086;2023-01-30T00:45:29;28.43;;;15.40;;
37943;SDS011;23767;42.024;23.086;2023-01-30T00:48:14;25.17;;;15.37;;
37943;SDS011;23767;42.024;23.086;2023-01-30T00:50:40;27.53;;;15.83;;
37943;SDS011;23767;42.024;23.086;2023-01-30T00:53:10;25.77;;;15.30;;
37943;SDS011;23767;42.024;23.086;2023-01-30T00:55:36;25.23;;;15.97;;
37943;SDS011;23767;42.024;23.086;2023-01-30T00:58:02;25.07;;;16.30;;
37943;SDS011;23767;42.024;23.086;2023-01-30T01:00:28;24.67;;;15.97;;
37943;SDS011;23767;42.024;23.086;2023-01-30T01:02:54;28.13;;;17.00;;
37943;SDS011;23767;42.024;23.086;2023-01-30T01:05:20;24.57;;;15.77;;
37943;SDS011;23767;42.024;23.086;2023-01-30T01:07:47;24.83;;;16.27;;
37943;SDS011;23767;42.024;23.086;2023-01-30T01:10:13;27.10;;;16.90;;
37943;SDS011;23767;42.024;23.086;2023-01-30T01:12:43;28.00;;;16.80;;
37943;SDS011;23767;42.024;23.086;2023-01-30T01:15:10;26.93;;;16.47;;
37943;SDS011;23767;42.024;23.086;2023-01-30T01:17:36;25.17;;;14.73;;
37943;SDS011;23767;42.024;23.086;2023-01-30T01:20:03;26.17;;;16.07;;
37943;SDS011;23767;42.024;23.086;2023-01-30T01:22:29;23.83;;;15.73;;
37943;SDS011;23767;42.024;23.086;2023-01-30T01:24:55;28.83;;;16.07;;
37943;SDS011;23767;42.024;23.086;2023-01-30T01:27:21;26.43;;;15.80;;
37943;SDS011;23767;42.024;23.086;2023-01-30T01:29:47;27.07;;;15.60;;
37943;SDS011;23767;42.024;23.086;2023-01-30T01:32:13;26.70;;;15.87;;
37943;SDS011;23767;42.024;23.086;2023-01-30T01:34:39;25.67;;;15.93;;
37943;SDS011;23767;42.024;23.086;2023-01-30T01:37:05;28.80;;;16.43;;
37943;SDS011;23767;42.024;23.086;2023-01-30T01:39:32;28.17;;;17.07;;
37943;SDS011;23767;42.024;23.086;2023-01-30T01:42:16;29.60;;;16.83;;
37943;SDS011;23767;42.024;23.086;2023-01-30T01:47:27;27.10;;;16.73;;
37943;SDS011;23767;42.024;23.086;2023-01-30T01:49:54;27.87;;;16.40;;
37943;SDS011;23767;42.024;23.086;2023-01-30T01:52:20;26.27;;;15.57;;
37943;SDS011;23767;42.024;23.086;2023-01-30T01:54:51;25.13;;;15.57;;
37943;SDS011;23767;42.024;23.086;2023-01-30T01:57:41;27.63;;;15.87;;
37943;SDS011;23767;42.024;23.086;2023-01-30T02:00:06;25.73;;;15.90;;
37943;SDS011;23767;42.024;23.086;2023-01-30T02:02:36;25.23;;;16.23;;
37943;SDS011;23767;42.024;23.086;2023-01-30T02:05:03;23.60;;;15.17;;
37943;SDS011;23767;42.024;23.086;2023-01-30T02:07:35;24.37;;;14.73;;
37943;SDS011;23767;42.024;23.086;2023-01-30T02:10:01;23.37;;;15.13;;
37943;SDS011;23767;42.024;23.086;2023-01-30T02:12:27;27.13;;;16.50;;
37943;SDS011;23767;42.024;23.086;2023-01-30T02:14:54;28.07;;;16.97;;
37943;SDS011;23767;42.024;23.086;2023-01-30T02:17:22;34.73;;;20.30;;
37943;SDS011;23767;42.024;23.086;2023-01-30T02:32:29;34.53;;;19.43;;
37943;SDS011;23767;42.024;23.086;2023-01-30T02:35:10;30.63;;;18.23;;
37943;SDS011;23767;42.024;23.086;2023-01-30T02:45:35;47.53;;;24.30;;
37943;SDS011;23767;42.024;23.086;2023-01-30T02:48:05;47.63;;;24.10;;
37943;SDS011;23767;42.024;23.086;2023-01-30T02:53:06;48.33;;;25.30;;
37943;SDS011;23767;42.024;23.086;2023-01-30T02:55:32;97.37;;;45.53;;
37943;SDS011;23767;42.024;23.086;2023-01-30T02:57:59;71.63;;;34.13;;
37943;SDS011;23767;42.024;23.086;2023-01-30T03:08:24;36.53;;;19.87;;
37943;SDS011;23767;42.024;23.086;2023-01-30T03:11:02;38.53;;;21.60;;
37943;SDS011;23767;42.024;23.086;2023-01-30T03:18:46;26.83;;;16.08;;
37943;SDS011;23767;42.024;23.086;2023-01-30T03:21:12;26.33;;;16.07;;
37943;SDS011;23767;42.024;23.086;2023-01-30T03:23:38;27.00;;;15.37;;
37943;SDS011;23767;42.024;23.086;2023-01-30T03:26:05;28.07;;;16.83;;
37943;SDS011;23767;42.024;23.086;2023-01-30T03:28:32;28.43;;;16.60;;
37943;SDS011;23767;42.024;23.086;2023-01-30T03:30:59;27.07;;;16.23;;
37943;SDS011;23767;42.024;23.086;2023-01-30T03:33:25;29.70;;;17.53;;
37943;SDS011;23767;42.024;23.086;2023-01-30T03:35:51;27.23;;;17.13;;
37943;SDS011;23767;42.024;23.086;2023-01-30T03:38:17;23.00;;;15.33;;
37943;SDS011;23767;42.024;23.086;2023-01-30T03:40:43;27.30;;;17.57;;
37943;SDS011;23767;42.024;23.086;2023-01-30T03:43:10;30.63;;;17.73;;
37943;SDS011;23767;42.024;23.086;2023-01-30T03:45:36;29.40;;;17.87;;
37943;SDS011;23767;42.024;23.086;2023-01-30T03:48:02;26.73;;;15.80;;
37943;SDS011;23767;42.024;23.086;2023-01-30T03:50:28;29.97;;;17.27;;
37943;SDS011;23767;42.024;23.086;2023-01-30T03:52:54;26.87;;;15.73;;
37943;SDS011;23767;42.024;23.086;2023-01-30T03:55:20;25.47;;;15.67;;
37943;SDS011;23767;42.024;23.086;2023-01-30T03:57:46;25.63;;;15.37;;
37943;SDS011;23767;42.024;23.086;2023-01-30T04:00:13;25.13;;;15.37;;
37943;SDS011;23767;42.024;23.086;2023-01-30T04:02:39;23.10;;;15.17;;
37943;SDS011;23767;42.024;23.086;2023-01-30T04:05:05;21.10;;;14.10;;
37943;SDS011;23767;42.024;23.086;2023-01-30T04:07:31;22.80;;;14.13;;
37943;SDS011;23767;42.024;23.086;2023-01-30T04:09:57;25.23;;;16.17;;
37943;SDS011;23767;42.024;23.086;2023-01-30T04:12:23;21.80;;;14.17;;
37943;SDS011;23767;42.024;23.086;2023-01-30T04:14:49;21.70;;;13.30;;
37943;SDS011;23767;42.024;23.086;2023-01-30T04:17:15;19.33;;;13.23;;
37943;SDS011;23767;42.024;23.086;2023-01-30T04:19:41;23.13;;;14.03;;
37943;SDS011;23767;42.024;23.086;2023-01-30T04:22:07;20.93;;;13.03;;
37943;SDS011;23767;42.024;23.086;2023-01-30T04:24:33;20.57;;;13.23;;
37943;SDS011;23767;42.024;23.086;2023-01-30T04:26:59;23.27;;;14.10;;
37943;SDS011;23767;42.024;23.086;2023-01-30T04:29:25;22.83;;;14.87;;
37943;SDS011;23767;42.024;23.086;2023-01-30T04:31:51;24.83;;;14.47;;
37943;SDS011;23767;42.024;23.086;2023-01-30T04:34:17;27.37;;;15.97;;
37943;SDS011;23767;42.024;23.086;2023-01-30T04:36:43;23.17;;;14.67;;
37943;SDS011;23767;42.024;23.086;2023-01-30T04:39:10;21.23;;;13.90;;
37943;SDS011;23767;42.024;23.086;2023-01-30T04:41:36;21.17;;;13.63;;
37943;SDS011;23767;42.024;23.086;2023-01-30T04:44:02;21.93;;;13.77;;
37943;SDS011;23767;42.024;23.086;2023-01-30T04:46:28;21.53;;;13.83;;
37943;SDS011;23767;42.024;23.086;2023-01-30T04:48:54;20.13;;;13.27;;
37943;SDS011;23767;42.024;23.086;2023-01-30T04:51:20;20.67;;;13.13;;
37943;SDS011;23767;42.024;23.086;2023-01-30T04:53:46;22.97;;;14.27;;
37943;SDS011;23767;42.024;23.086;2023-01-30T04:56:12;23.87;;;14.10;;
37943;SDS011;23767;42.024;23.086;2023-01-30T04:58:38;20.83;;;13.73;;
37943;SDS011;23767;42.024;23.086;2023-01-30T05:01:14;21.77;;;14.17;;
37943;SDS011;23767;42.024;23.086;2023-01-30T05:03:41;20.20;;;13.37;;
37943;SDS011;23767;42.024;23.086;2023-01-30T05:06:07;21.60;;;14.33;;
37943;SDS011;23767;42.024;23.086;2023-01-30T05:08:33;21.07;;;14.27;;
37943;SDS011;23767;42.024;23.086;2023-01-30T05:10:59;21.57;;;14.57;;
37943;SDS011;23767;42.024;23.086;2023-01-30T05:13:25;23.30;;;15.03;;
37943;SDS011;23767;42.024;23.086;2023-01-30T05:15:51;26.83;;;17.87;;
37943;SDS011;23767;42.024;23.086;2023-01-30T05:18:17;23.37;;;14.60;;
37943;SDS011;23767;42.024;23.086;2023-01-30T05:20:43;28.37;;;17.60;;
37943;SDS011;23767;42.024;23.086;2023-01-30T05:23:09;23.60;;;15.93;;
37943;SDS011;23767;42.024;23.086;2023-01-30T05:25:35;26.70;;;16.60;;
37943;SDS011;23767;42.024;23.086;2023-01-30T05:28:01;25.37;;;16.20;;
37943;SDS011;23767;42.024;23.086;2023-01-30T05:30:27;25.00;;;16.40;;
37943;SDS011;23767;42.024;23.086;2023-01-30T05:32:53;24.80;;;16.83;;
37943;SDS011;23767;42.024;23.086;2023-01-30T05:35:19;25.83;;;16.50;;
37943;SDS011;23767;42.024;23.086;2023-01-30T05:37:48;25.90;;;16.63;;
37943;SDS011;23767;42.024;23.086;2023-01-30T05:40:14;28.80;;;17.97;;
37943;SDS011;23767;42.024;23.086;2023-01-30T05:42:40;30.93;;;17.17;;
37943;SDS011;23767;42.024;23.086;2023-01-30T05:45:07;32.33;;;18.70;;
37943;SDS011;23767;42.024;23.086;2023-01-30T05:47:33;28.17;;;17.40;;
37943;SDS011;23767;42.024;23.086;2023-01-30T05:49:59;32.50;;;18.77;;
37943;SDS011;23767;42.024;23.086;2023-01-30T05:52:25;28.83;;;19.13;;
37943;SDS011;23767;42.024;23.086;2023-01-30T05:54:51;26.83;;;17.83;;
37943;SDS011;23767;42.024;23.086;2023-01-30T05:57:17;31.00;;;19.03;;
37943;SDS011;23767;42.024;23.086;2023-01-30T05:59:43;40.43;;;24.70;;
37943;SDS011;23767;42.024;23.086;2023-01-30T06:02:09;46.77;;;26.53;;
37943;SDS011;23767;42.024;23.086;2023-01-30T06:04:35;41.27;;;24.63;;
37943;SDS011;23767;42.024;23.086;2023-01-30T06:07:01;38.00;;;22.17;;
37943;SDS011;23767;42.024;23.086;2023-01-30T06:09:27;39.83;;;23.37;;
37943;SDS011;23767;42.024;23.086;2023-01-30T06:11:53;44.63;;;25.40;;
37943;SDS011;23767;42.024;23.086;2023-01-30T06:14:20;34.57;;;23.33;;
37943;SDS011;23767;42.024;23.086;2023-01-30T06:16:46;35.60;;;20.23;;
37943;SDS011;23767;42.024;23.086;2023-01-30T06:19:12;31.40;;;21.47;;
37943;SDS011;23767;42.024;23.086;2023-01-30T06:21:38;20.93;;;13.63;;
37943;SDS011;23767;42.024;23.086;2023-01-30T06:24:04;16.67;;;10.33;;
37943;SDS011;23767;42.024;23.086;2023-01-30T06:26:30;17.93;;;11.90;;
37943;SDS011;23767;42.024;23.086;2023-01-30T06:28:56;15.60;;;10.47;;
37943;SDS011;23767;42.024;23.086;2023-01-30T06:31:22;13.20;;;8.93;;
37943;SDS011;23767;42.024;23.086;2023-01-30T06:33:48;17.20;;;10.57;;
37943;SDS011;23767;42.024;23.086;2023-01-30T06:36:14;15.13;;;8.87;;
37943;SDS011;23767;42.024;23.086;2023-01-30T06:38:40;14.50;;;9.17;;
37943;SDS011;23767;42.024;23.086;2023-01-30T06:41:06;16.20;;;9.80;;
37943;SDS011;23767;42.024;23.086;2023-01-30T06:43:32;44.90;;;26.87;;
37943;SDS011;23767;42.024;23.086;2023-01-30T06:45:58;46.97;;;25.90;;
37943;SDS011;23767;42.024;23.086;2023-01-30T06:48:24;46.73;;;28.37;;
37943;SDS011;23767;42.024;23.086;2023-01-30T06:50:51;43.20;;;28.20;;
37943;SDS011;23767;42.024;23.086;2023-01-30T06:53:17;45.17;;;26.30;;
37943;SDS011;23767;42.024;23.086;2023-01-30T06:55:43;41.87;;;26.37;;
37943;SDS011;23767;42.024;23.086;2023-01-30T06:58:10;39.70;;;26.63;;
37943;SDS011;23767;42.024;23.086;2023-01-30T07:00:37;38.27;;;23.37;;
37943;SDS011;23767;42.024;23.086;2023-01-30T07:03:04;28.50;;;17.90;;
37943;SDS011;23767;42.024;23.086;2023-01-30T07:05:30;18.80;;;13.27;;
37943;SDS011;23767;42.024;23.086;2023-01-30T07:07:57;17.73;;;12.23;;
37943;SDS011;23767;42.024;23.086;2023-01-30T07:10:23;15.20;;;9.30;;
37943;SDS011;23767;42.024;23.086;2023-01-30T07:12:50;15.13;;;9.37;;
37943;SDS011;23767;42.024;23.086;2023-01-30T07:15:17;21.83;;;15.17;;
37943;SDS011;23767;42.024;23.086;2023-01-30T07:17:43;20.63;;;14.17;;
37943;SDS011;23767;42.024;23.086;2023-01-30T07:20:09;17.27;;;11.40;;
37943;SDS011;23767;42.024;23.086;2023-01-30T07:22:35;20.43;;;14.37;;
37943;SDS011;23767;42.024;23.086;2023-01-30T07:25:02;16.90;;;11.20;;
37943;SDS011;23767;42.024;23.086;2023-01-30T07:27:28;22.07;;;17.57;;
37943;SDS011;23767;42.024;23.086;2023-01-30T07:29:54;17.97;;;12.17;;
37943;SDS011;23767;42.024;23.086;2023-01-30T07:32:20;15.83;;;9.90;;
37943;SDS011;23767;42.024;23.086;2023-01-30T07:34:46;21.60;;;15.47;;
37943;SDS011;23767;42.024;23.086;2023-01-30T07:37:13;24.17;;;16.40;;
37943;SDS011;23767;42.024;23.086;2023-01-30T07:39:39;12.23;;;7.93;;
37943;SDS011;23767;42.024;23.086;2023-01-30T07:42:05;11.73;;;8.00;;
37943;SDS011;23767;42.024;23.086;2023-01-30T07:44:31;14.83;;;9.07;;
37943;SDS011;23767;42.024;23.086;2023-01-30T07:47:00;13.27;;;8.07;;
37943;SDS011;23767;42.024;23.086;2023-01-30T07:49:26;14.33;;;9.13;;
37943;SDS011;23767;42.024;23.086;2023-01-30T07:51:52;11.70;;;7.73;;
37943;SDS011;23767;42.024;23.086;2023-01-30T07:54:18;16.13;;;9.63;;
37943;SDS011;23767;42.024;23.086;2023-01-30T07:56:44;25.87;;;14.20;;
37943;SDS011;23767;42.024;23.086;2023-01-30T07:59:10;13.03;;;8.20;;
37943;SDS011;23767;42.024;23.086;2023-01-30T08:01:37;14.17;;;9.17;;
37943;SDS011;23767;42.024;23.086;2023-01-30T08:04:03;13.53;;;8.67;;
37943;SDS011;23767;42.024;23.086;2023-01-30T08:06:29;15.43;;;9.07;;
37943;SDS011;23767;42.024;23.086;2023-01-30T08:08:55;17.70;;;11.57;;
37943;SDS011;23767;42.024;23.086;2023-01-30T08:11:21;25.83;;;16.47;;
37943;SDS011;23767;42.024;23.086;2023-01-30T08:13:47;19.47;;;12.10;;
37943;SDS011;23767;42.024;23.086;2023-01-30T08:16:13;22.23;;;12.57;;
37943;SDS011;23767;42.024;23.086;2023-01-30T08:18:39;13.17;;;8.10;;
37943;SDS011;23767;42.024;23.086;2023-01-30T08:21:05;13.43;;;8.50;;
37943;SDS011;23767;42.024;23.086;2023-01-30T08:23:32;12.03;;;7.60;;
37943;SDS011;23767;42.024;23.086;2023-01-30T08:25:59;15.17;;;8.73;;
37943;SDS011;23767;42.024;23.086;2023-01-30T08:28:26;13.87;;;8.10;;
37943;SDS011;23767;42.024;23.086;2023-01-30T08:30:52;13.63;;;8.30;;
37943;SDS011;23767;42.024;23.086;2023-01-30T08:33:19;15.20;;;9.27;;
37943;SDS011;23767;42.024;23.086;2023-01-30T08:35:45;13.90;;;8.90;;
37943;SDS011;23767;42.024;23.086;2023-01-30T08:38:11;14.50;;;8.00;;
37943;SDS011;23767;42.024;23.086;2023-01-30T08:40:37;13.17;;;8.30;;
37943;SDS011;23767;42.024;23.086;2023-01-30T08:43:04;14.57;;;8.90;;
37943;SDS011;23767;42.024;23.086;2023-01-30T08:45:30;12.50;;;8.23;;
37943;SDS011;23767;42.024;23.086;2023-01-30T08:47:57;14.73;;;8.77;;
37943;SDS011;23767;42.024;23.086;2023-01-30T08:50:23;13.17;;;8.67;;
37943;SDS011;23767;42.024;23.086;2023-01-30T08:52:49;16.10;;;9.50;;
37943;SDS011;23767;42.024;23.086;2023-01-30T08:55:15;14.43;;;8.47;;
37943;SDS011;23767;42.024;23.086;2023-01-30T08:57:42;12.93;;;8.67;;
37943;SDS011;23767;42.024;23.086;2023-01-30T09:00:08;14.10;;;8.90;;
37943;SDS011;23767;42.024;23.086;2023-01-30T09:02:35;12.73;;;8.70;;
37943;SDS011;23767;42.024;23.086;2023-01-30T09:05:01;17.80;;;9.50;;
37943;SDS011;23767;42.024;23.086;2023-01-30T09:07:27;14.83;;;8.40;;
37943;SDS011;23767;42.024;23.086;2023-01-30T09:09:53;16.67;;;10.23;;
37943;SDS011;23767;42.024;23.086;2023-01-30T09:12:19;20.30;;;12.87;;
37943;SDS011;23767;42.024;23.086;2023-01-30T09:14:46;18.33;;;11.27;;
37943;SDS011;23767;42.024;23.086;2023-01-30T09:17:12;14.57;;;9.17;;
37943;SDS011;23767;42.024;23.086;2023-01-30T09:19:38;17.63;;;11.67;;
37943;SDS011;23767;42.024;23.086;2023-01-30T09:22:04;21.40;;;14.03;;
37943;SDS011;23767;42.024;23.086;2023-01-30T09:24:31;37.30;;;26.67;;
37943;SDS011;23767;42.024;23.086;2023-01-30T09:26:58;16.53;;;9.63;;
37943;SDS011;23767;42.024;23.086;2023-01-30T09:29:24;16.47;;;11.03;;
37943;SDS011;23767;42.024;23.086;2023-01-30T09:31:51;14.60;;;9.57;;
37943;SDS011;23767;42.024;23.086;2023-01-30T09:34:17;16.23;;;9.77;;
37943;SDS011;23767;42.024;23.086;2023-01-30T09:36:43;14.23;;;9.20;;
37943;SDS011;23767;42.024;23.086;2023-01-30T09:39:09;18.53;;;10.33;;
37943;SDS011;23767;42.024;23.086;2023-01-30T09:54:39;18.20;;;10.20;;
37943;SDS011;23767;42.024;23.086;2023-01-30T09:57:09;21.53;;;12.40;;
37943;SDS011;23767;42.024;23.086;2023-01-30T10:04:49;17.03;;;10.93;;
37943;SDS011;23767;42.024;23.086;2023-01-30T10:07:22;18.33;;;11.83;;
37943;SDS011;23767;42.024;23.086;2023-01-30T10:18:27;25.45;;;16.73;;
37943;SDS011;23767;42.024;23.086;2023-01-30T10:26:14;20.20;;;12.30;;
37943;SDS011;23767;42.024;23.086;2023-01-30T10:31:13;16.60;;;11.00;;
37943;SDS011;23767;42.024;23.086;2023-01-30T10:34:22;16.67;;;10.90;;
37943;SDS011;23767;42.024;23.086;2023-01-30T10:42:17;14.93;;;9.70;;
37943;SDS011;23767;42.024;23.086;2023-01-30T10:44:46;22.20;;;14.33;;
37943;SDS011;23767;42.024;23.086;2023-01-30T10:47:23;31.00;;;20.13;;
37943;SDS011;23767;42.024;23.086;2023-01-30T10:52:43;17.30;;;11.37;;
37943;SDS011;23767;42.024;23.086;2023-01-30T10:55:32;15.87;;;10.50;;
37943;SDS011;23767;42.024;23.086;2023-01-30T11:03:03;14.90;;;10.03;;
37943;SDS011;23767;42.024;23.086;2023-01-30T11:05:35;14.60;;;10.32;;
37943;SDS011;23767;42.024;23.086;2023-01-30T11:08:07;14.43;;;9.73;;
37943;SDS011;23767;42.024;23.086;2023-01-30T11:10:35;17.30;;;10.07;;
37943;SDS011;23767;42.024;23.086;2023-01-30T11:15:43;73.07;;;39.10;;
37943;SDS011;23767;42.024;23.086;2023-01-30T11:18:09;42.33;;;25.47;;
37943;SDS011;23767;42.024;23.086;2023-01-30T11:20:39;15.40;;;9.07;;
37943;SDS011;23767;42.024;23.086;2023-01-30T11:23:07;19.57;;;13.03;;
37943;SDS011;23767;42.024;23.086;2023-01-30T11:25:47;15.13;;;10.47;;
37943;SDS011;23767;42.024;23.086;2023-01-30T11:28:13;46.97;;;29.77;;
37943;SDS011;23767;42.024;23.086;2023-01-30T11:30:43;20.67;;;13.38;;
37943;SDS011;23767;42.024;23.086;2023-01-30T11:33:14;21.13;;;12.27;;
37943;SDS011;23767;42.024;23.086;2023-01-30T11:35:51;18.13;;;11.23;;
37943;SDS011;23767;42.024;23.086;2023-01-30T11:40:47;15.23;;;9.95;;
37943;SDS011;23767;42.024;23.086;2023-01-30T11:43:13;15.63;;;8.77;;
37943;SDS011;23767;42.024;23.086;2023-01-30T11:45:40;15.53;;;9.70;;
37943;SDS011;23767;42.024;23.086;2023-01-30T11:48:11;16.35;;;9.88;;
37943;SDS011;23767;42.024;23.086;2023-01-30T11:50:39;16.45;;;10.13;;
37943;SDS011;23767;42.024;23.086;2023-01-30T11:53:28;13.13;;;8.88;;
37943;SDS011;23767;42.024;23.086;2023-01-30T11:55:53;13.15;;;8.32;;
37943;SDS011;23767;42.024;23.086;2023-01-30T11:58:20;12.27;;;8.57;;
37943;SDS011;23767;42.024;23.086;2023-01-30T12:00:46;14.23;;;8.90;;
37943;SDS011;23767;42.024;23.086;2023-01-30T12:03:15;13.75;;;9.02;;
37943;SDS011;23767;42.024;23.086;2023-01-30T12:05:43;13.20;;;9.43;;
37943;SDS011;23767;42.024;23.086;2023-01-30T12:10:49;11.73;;;8.00;;
37943;SDS011;23767;42.024;23.086;2023-01-30T12:13:22;15.10;;;9.87;;
37943;SDS011;23767;42.024;23.086;2023-01-30T12:15:53;12.63;;;8.43;;
37943;SDS011;23767;42.024;23.086;2023-01-30T12:18:28;10.82;;;7.75;;
37943;SDS011;23767;42.024;23.086;2023-01-30T12:21:00;16.90;;;9.77;;
37943;SDS011;23767;42.024;23.086;2023-01-30T12:31:24;12.93;;;7.87;;
37943;SDS011;23767;42.024;23.086;2023-01-30T12:33:51;14.33;;;8.43;;
37943;SDS011;23767;42.024;23.086;2023-01-30T12:36:24;11.63;;;7.87;;
37943;SDS011;23767;42.024;23.086;2023-01-30T12:51:49;12.03;;;8.13;;
37943;SDS011;23767;42.024;23.086;2023-01-30T12:56:53;15.07;;;10.15;;
37943;SDS011;23767;42.024;23.086;2023-01-30T12:59:24;11.97;;;8.37;;
37943;SDS011;23767;42.024;23.086;2023-01-30T13:04:32;14.27;;;7.93;;
37943;SDS011;23767;42.024;23.086;2023-01-30T13:19:59;10.85;;;6.97;;
37943;SDS011;23767;42.024;23.086;2023-01-30T13:22:40;9.53;;;7.17;;
37943;SDS011;23767;42.024;23.086;2023-01-30T13:27:42;10.57;;;6.80;;
37943;SDS011;23767;42.024;23.086;2023-01-30T13:30:12;10.70;;;6.50;;
37943;SDS011;23767;42.024;23.086;2023-01-30T13:32:40;11.10;;;6.93;;
37943;SDS011;23767;42.024;23.086;2023-01-30T13:35:27;11.80;;;7.27;;
37943;SDS011;23767;42.024;23.086;2023-01-30T13:37:55;12.23;;;7.40;;
37943;SDS011;23767;42.024;23.086;2023-01-30T13:40:23;11.67;;;7.00;;
37943;SDS011;23767;42.024;23.086;2023-01-30T13:42:55;11.17;;;6.73;;
37943;SDS011;23767;42.024;23.086;2023-01-30T13:45:26;10.45;;;7.50;;
37943;SDS011;23767;42.024;23.086;2023-01-30T13:53:22;10.10;;;6.83;;
37943;SDS011;23767;42.024;23.086;2023-01-30T14:00:52;10.68;;;6.60;;
37943;SDS011;23767;42.024;23.086;2023-01-30T14:03:23;10.43;;;6.97;;
37943;SDS011;23767;42.024;23.086;2023-01-30T14:08:24;11.93;;;7.17;;
37943;SDS011;23767;42.024;23.086;2023-01-30T14:10:51;12.53;;;7.67;;
37943;SDS011;23767;42.024;23.086;2023-01-30T14:13:19;9.60;;;6.43;;
37943;SDS011;23767;42.024;23.086;2023-01-30T14:15:55;10.07;;;6.97;;
37943;SDS011;23767;42.024;23.086;2023-01-30T14:18:22;13.10;;;7.00;;
37943;SDS011;23767;42.024;23.086;2023-01-30T14:20:50;12.75;;;7.10;;
37943;SDS011;23767;42.024;23.086;2023-01-30T14:23:32;11.52;;;7.05;;
37943;SDS011;23767;42.024;23.086;2023-01-30T14:25:58;11.02;;;5.57;;
37943;SDS011;23767;42.024;23.086;2023-01-30T14:31:03;8.87;;;6.23;;
37943;SDS011;23767;42.024;23.086;2023-01-30T14:33:30;13.95;;;6.70;;
37943;SDS011;23767;42.024;23.086;2023-01-30T14:43:25;11.55;;;7.45;;
37943;SDS011;23767;42.024;23.086;2023-01-30T14:45:56;11.43;;;7.50;;
37943;SDS011;23767;42.024;23.086;2023-01-30T14:48:29;10.40;;;6.72;;
37943;SDS011;23767;42.024;23.086;2023-01-30T14:51:18;11.03;;;7.17;;
37943;SDS011;23767;42.024;23.086;2023-01-30T14:53:58;13.17;;;8.37;;
37943;SDS011;23767;42.024;23.086;2023-01-30T14:59:01;14.73;;;10.20;;
37943;SDS011;23767;42.024;23.086;2023-01-30T15:01:51;14.20;;;8.37;;
37943;SDS011;23767;42.024;23.086;2023-01-30T15:04:14;14.97;;;9.93;;
37943;SDS011;23767;42.024;23.086;2023-01-30T15:06:41;12.80;;;8.77;;
37943;SDS011;23767;42.024;23.086;2023-01-30T15:09:07;11.47;;;7.97;;
37943;SDS011;23767;42.024;23.086;2023-01-30T15:11:34;14.27;;;9.67;;
37943;SDS011;23767;42.024;23.086;2023-01-30T15:14:14;13.10;;;8.87;;
37943;SDS011;23767;42.024;23.086;2023-01-30T15:17:05;14.30;;;9.23;;
37943;SDS011;23767;42.024;23.086;2023-01-30T15:19:40;18.50;;;10.47;;
37943;SDS011;23767;42.024;23.086;2023-01-30T15:22:15;14.07;;;9.27;;
37943;SDS011;23767;42.024;23.086;2023-01-30T15:27:28;12.40;;;7.70;;
37943;SDS011;23767;42.024;23.086;2023-01-30T15:32:22;11.57;;;7.77;;
37943;SDS011;23767;42.024;23.086;2023-01-30T15:34:53;12.77;;;8.33;;
37943;SDS011;23767;42.024;23.086;2023-01-30T15:42:36;16.80;;;11.63;;
37943;SDS011;23767;42.024;23.086;2023-01-30T15:45:06;17.60;;;12.53;;
37943;SDS011;23767;42.024;23.086;2023-01-30T15:47:45;20.77;;;12.93;;
37943;SDS011;23767;42.024;23.086;2023-01-30T15:50:15;20.80;;;14.13;;
37943;SDS011;23767;42.024;23.086;2023-01-30T15:52:45;21.00;;;13.20;;
37943;SDS011;23767;42.024;23.086;2023-01-30T15:55:35;16.42;;;11.43;;
37943;SDS011;23767;42.024;23.086;2023-01-30T15:58:00;18.33;;;11.23;;
37943;SDS011;23767;42.024;23.086;2023-01-30T16:00:28;15.27;;;10.47;;
37943;SDS011;23767;42.024;23.086;2023-01-30T16:02:55;14.67;;;10.30;;
37943;SDS011;23767;42.024;23.086;2023-01-30T16:05:23;15.57;;;10.47;;
37943;SDS011;23767;42.024;23.086;2023-01-30T16:07:50;16.03;;;9.67;;
37943;SDS011;23767;42.024;23.086;2023-01-30T16:10:20;18.50;;;9.40;;
37943;SDS011;23767;42.024;23.086;2023-01-30T16:12:47;20.30;;;10.67;;
37943;SDS011;23767;42.024;23.086;2023-01-30T16:20:44;38.13;;;18.73;;
37943;SDS011;23767;42.024;23.086;2023-01-30T16:23:22;29.83;;;15.00;;
37943;SDS011;23767;42.024;23.086;2023-01-30T16:25:49;16.10;;;9.63;;
37943;SDS011;23767;42.024;23.086;2023-01-30T16:28:23;17.37;;;10.73;;
37943;SDS011;23767;42.024;23.086;2023-01-30T16:30:56;22.03;;;12.47;;
37943;SDS011;23767;42.024;23.086;2023-01-30T16:33:23;43.00;;;19.63;;
37943;SDS011;23767;42.024;23.086;2023-01-30T16:35:49;45.70;;;19.60;;
37943;SDS011;23767;42.024;23.086;2023-01-30T16:40:53;29.73;;;15.40;;
37943;SDS011;23767;42.024;23.086;2023-01-30T16:43:22;25.97;;;13.47;;
37943;SDS011;23767;42.024;23.086;2023-01-30T16:50:48;17.23;;;10.53;;
37943;SDS011;23767;42.024;23.086;2023-01-30T16:53:15;13.47;;;9.53;;
37943;SDS011;23767;42.024;23.086;2023-01-30T16:56:14;22.20;;;16.07;;
37943;SDS011;23767;42.024;23.086;2023-01-30T16:58:37;17.80;;;12.67;;
37943;SDS011;23767;42.024;23.086;2023-01-30T17:01:05;17.50;;;12.43;;
37943;SDS011;23767;42.024;23.086;2023-01-30T17:03:39;16.83;;;11.07;;
37943;SDS011;23767;42.024;23.086;2023-01-30T17:06:09;16.03;;;10.30;;
37943;SDS011;23767;42.024;23.086;2023-01-30T17:11:31;18.33;;;10.50;;
37943;SDS011;23767;42.024;23.086;2023-01-30T17:16:35;15.30;;;10.07;;
37943;SDS011;23767;42.024;23.086;2023-01-30T17:19:03;15.33;;;10.77;;
37943;SDS011;23767;42.024;23.086;2023-01-30T17:21:30;17.40;;;10.90;;
37943;SDS011;23767;42.024;23.086;2023-01-30T17:23:59;15.37;;;10.43;;
37943;SDS011;23767;42.024;23.086;2023-01-30T17:26:26;16.07;;;10.57;;
37943;SDS011;23767;42.024;23.086;2023-01-30T17:28:52;15.07;;;10.43;;
37943;SDS011;23767;42.024;23.086;2023-01-30T17:31:19;15.67;;;10.63;;